Latest Weather Observations for Narrandera Airport

IDN60801

Issued at 9:02 pm EST Saturday 25 April 2015 (issued every 30 minutes, with the page automatically refreshed every 10 minutes)

About weather observations | Map of weather stations | Latest weather observations for NSW | Other Formats
Station Details ID: 074148 Name: NARRANDERA AIRPORT AWS Lat: -34.70 Lon: 146.51 Height: 145.0 m
Data from the previous 72 hours. | See also: Recent months for locations in New South Wales
Date/Time
EST
Temp
°C
App
Temp
°C
Dew
Point
Rel
Hum
%
Delta-T
°C
Wind Press
QNH
hPa
Press
MSL
hPa
Rain
since 9 am
mm
Dir
 
Spd
km/h
Gust
km/h
Spd
kts
Gust
kts
25/09:00pm 10.5 8.0 8.1 85 1.2 WNW 11 15 6 8 1011.3 1011.0 0.6
25/08:30pm 10.9 8.4 8.1 83 1.4 WNW 11 17 6 9 1011.3 1011.0 0.6
25/08:00pm 11.1 8.2 8.0 81 1.5 WNW 13 20 7 11 1010.9 1010.6 0.6
25/07:30pm 11.3 8.4 8.2 81 1.5 WNW 13 15 7 8 1010.7 1010.4 0.6
25/07:00pm 11.2 7.5 8.1 81 1.5 WNW 17 24 9 13 1010.7 1010.4 0.6
25/06:30pm 11.5 7.7 7.6 77 1.9 WNW 17 24 9 13 1010.3 1010.0 0.6
25/06:00pm 11.9 7.0 7.0 72 2.4 WNW 22 33 12 18 1009.7 1009.4 0.6
25/05:30pm 12.1 6.9 7.4 73 2.3 W 24 35 13 19 1009.4 1009.1 0.6
25/05:00pm 12.8 7.7 7.5 70 2.6 W 24 41 13 22 1008.9 1008.6 0.6
25/04:56pm 13.5 9.3 7.3 66 3.0 W 19 39 10 21 1008.7 1008.4 0.6
25/04:30pm 15.3 11.9 7.6 60 3.9 WSW 15 20 8 11 1008.3 1008.0 0.6
25/04:00pm 15.6 12.1 7.4 58 4.1 W 15 19 8 10 1007.9 1007.6 0.6
25/03:30pm 15.8 12.6 6.8 55 4.4 WSW 13 20 7 11 1007.6 1007.2 0.6
25/03:00pm 16.6 13.2 7.8 56 4.5 WSW 15 24 8 13 1007.5 1007.1 0.6
25/02:30pm 16.0 12.2 7.5 57 4.3 WSW 17 20 9 11 1007.4 1007.0 0.6
25/02:00pm 15.8 12.8 7.8 59 4.0 W 13 24 7 13 1007.3 1006.9 0.6
25/01:30pm 16.2 13.5 8.9 62 3.8 W 13 20 7 11 1007.3 1006.9 0.6
25/01:00pm 16.3 13.6 8.8 61 3.9 WNW 13 20 7 11 1007.4 1007.0 0.6
25/12:30pm 16.3 13.6 9.0 62 3.8 WNW 13 17 7 9 1007.9 1007.6 0.6
25/12:00pm 15.1 12.4 10.5 74 2.4 W 15 19 8 10 1008.2 1007.9 0.6
25/11:30am 14.8 12.9 10.6 76 2.2 W 11 15 6 8 1008.2 1007.9 0.6
25/11:00am 15.6 12.5 10.2 70 2.9 WNW 17 20 9 11 1008.2 1007.9 0.6
25/10:30am 15.2 15.3 11.6 79 2.0 WSW 2 7 1 4 1008.3 1008.0 0.6
25/10:00am 13.8 13.1 11.5 86 1.2 ESE 6 7 3 4 1008.4 1008.1 0.6
25/09:30am 14.0 12.5 10.4 79 1.9 SW 9 13 5 7 1008.6 1008.3 0.0
25/09:00am 13.8 12.8 10.4 80 1.8 SSE 6 9 3 5 1008.4 1008.1 0.2
25/08:30am 13.4 12.7 11.3 87 1.1 SE 6 9 3 5 1008.2 1007.9 0.2
25/08:00am 12.4 12.4 11.0 91 0.7 SSW 2 7 1 4 1008.2 1007.9 0.2
25/07:30am 12.0 11.9 10.7 92 0.7 SE 2 7 1 4 1007.6 1007.2 0.2
25/07:00am 12.0 10.9 10.6 91 0.7 SSW 7 11 4 6 1007.6 1007.2 0.2
25/06:30am 12.1 9.4 10.3 89 0.9 W 15 20 8 11 1007.5 1007.1 0.2
25/06:00am 11.9 10.0 10.6 92 0.7 NW 11 13 6 7 1006.8 1006.4 0.2
25/05:30am 12.8 12.3 10.7 87 1.1 S 4 9 2 5 1006.1 1005.7 0.2
25/05:00am 13.2 11.0 10.7 85 1.3 NW 13 15 7 8 1006.8 1006.4 0.0
25/04:30am 14.1 11.9 10.7 80 1.8 N 13 17 7 9 1006.8 1006.4 0.0
25/04:00am 13.8 12.1 11.1 84 1.4 NNE 11 13 6 7 1006.7 1006.3 0.0
25/03:30am 13.6 13.8 10.4 81 1.7 CALM 0 6 0 3 1006.5 1006.1 0.0
25/03:00am 13.4 13.6 10.4 82 1.6 CALM 0 6 0 3 1006.8 1006.4 0.0
25/02:30am 13.7 10.2 10.3 80 1.8 N 19 26 10 14 1007.2 1006.8 0.0
25/02:00am 12.6 12.0 9.1 79 1.8 ENE 2 7 1 4 1006.9 1006.5 0.0
25/01:30am 13.2 12.3 9.1 76 2.1 E 4 9 2 5 1007.0 1006.6 0.0
25/01:00am 12.7 12.2 9.3 80 1.7 ENE 2 7 1 4 1007.2 1006.8 0.0
25/12:30am 12.4 12.0 9.6 83 1.4 E 2 7 1 4 1007.2 1006.8 0.0
25/12:00am 11.7 10.1 8.9 83 1.4 ESE 7 9 4 5 1007.5 1007.1 0.0
 
Date/Time
EST
Temp
°C
App
Temp
°C
Dew
Point
Rel
Hum
%
Delta-T
°C
Wind Press
QNH
hPa
Press
MSL
hPa
Rain
since 9 am
mm
Dir
 
Spd
km/h
Gust
km/h
Spd
kts
Gust
kts
24/11:30pm 11.7 9.8 8.9 83 1.4 ESE 9 11 5 6 1007.7 1007.4 0.0
24/11:00pm 12.3 12.1 9.1 81 1.6 CALM 0 0 0 0 1007.9 1007.6 0.0
24/10:30pm 13.0 12.9 9.3 78 1.9 CALM 0 0 0 0 1008.0 1007.7 0.0
24/10:00pm 14.1 14.0 9.5 74 2.4 CALM 0 0 0 0 1008.1 1007.8 0.0
24/09:30pm 15.0 15.0 9.8 71 2.7 CALM 0 0 0 0 1008.4 1008.1 0.0
24/09:00pm 15.3 15.2 9.4 68 3.1 CALM 0 0 0 0 1008.4 1008.1 0.0
24/08:30pm 15.3 15.3 9.9 70 2.8 CALM 0 0 0 0 1008.3 1008.0 0.0
24/08:00pm 15.3 15.1 9.2 67 3.2 CALM 0 0 0 0 1008.1 1007.8 0.0
24/07:30pm 15.6 15.2 8.4 62 3.7 CALM 0 0 0 0 1007.9 1007.6 0.0
24/07:00pm 17.1 15.0 8.3 56 4.5 WNW 9 13 5 7 1007.9 1007.6 0.0
24/06:30pm 17.5 15.4 8.1 54 4.8 NW 9 13 5 7 1007.8 1007.5 0.0
24/06:00pm 18.1 14.7 7.5 50 5.4 NW 15 19 8 10 1007.4 1007.0 0.0
24/05:30pm 18.7 14.9 7.5 48 5.7 NW 17 22 9 12 1007.1 1006.7 0.0
24/05:00pm 18.8 14.7 6.3 44 6.3 NW 17 22 9 12 1006.9 1006.5 0.0
24/04:30pm 20.2 15.5 7.6 44 6.5 WNW 22 28 12 15 1006.8 1006.4 0.0
24/04:00pm 20.1 15.9 8.4 47 6.2 WNW 20 28 11 15 1006.7 1006.3 0.0
24/03:30pm 20.6 16.8 9.8 50 5.8 WNW 20 30 11 16 1006.7 1006.3 0.0
24/03:00pm 19.8 15.1 9.4 51 5.6 WNW 24 35 13 19 1006.8 1006.4 0.0
24/02:30pm 20.3 15.7 9.8 51 5.7 WNW 24 32 13 17 1006.7 1006.3 0.0
24/02:00pm 20.0 15.5 9.9 52 5.5 WNW 24 35 13 19 1006.9 1006.5 0.0
24/01:30pm 20.1 15.6 10.2 53 5.4 NW 24 32 13 17 1006.9 1006.5 0.0
24/01:00pm 20.2 15.9 10.6 54 5.3 NW 24 32 13 17 1007.1 1006.7 0.0
24/12:30pm 20.1 15.3 10.2 53 5.4 NW 26 37 14 20 1007.6 1007.2 0.0
24/12:00pm 19.1 15.2 10.9 59 4.5 WNW 22 28 12 15 1008.2 1007.9 0.0
24/11:30am 19.3 16.4 11.1 59 4.5 WNW 17 24 9 13 1008.3 1008.0 0.0
24/11:00am 18.5 15.5 10.8 61 4.2 WNW 17 22 9 12 1008.7 1008.4 0.0
24/10:30am 18.1 15.1 10.5 61 4.1 NW 17 22 9 12 1008.8 1008.5 0.0
24/10:00am 18.4 16.1 10.5 60 4.3 WNW 13 17 7 9 1008.7 1008.4 0.0
24/09:30am 17.9 15.9 11.5 66 3.5 NNW 13 17 7 9 1008.7 1008.4 0.0
24/09:00am 17.2 15.2 11.5 69 3.1 NW 13 15 7 8 1009.0 1008.7 0.0
24/08:30am 16.0 13.3 10.5 70 2.9 NW 15 17 8 9 1009.0 1008.7 0.0
24/08:00am 15.3 12.4 10.9 75 2.4 NNW 17 20 9 11 1008.8 1008.5 0.0
24/07:30am 14.2 12.1 11.2 82 1.6 NW 13 15 7 8 1008.7 1008.4 0.0
24/07:00am 14.3 12.2 11.3 82 1.6 NW 13 17 7 9 1008.5 1008.2 0.0
24/06:30am 14.5 12.4 11.3 81 1.7 NW 13 15 7 8 1008.2 1007.9 0.0
24/06:00am 14.8 14.5 11.4 80 1.8 NW 4 7 2 4 1007.7 1007.4 0.0
24/05:30am 15.1 13.5 11.5 79 1.9 NW 11 13 6 7 1008.1 1007.8 0.0
24/05:00am 15.5 14.3 11.7 78 2.1 NW 9 13 5 7 1007.8 1007.5 0.0
24/04:30am 15.6 13.6 11.6 77 2.2 NW 13 17 7 9 1008.0 1007.7 0.0
24/04:00am 15.7 14.9 11.7 77 2.2 WNW 7 13 4 7 1008.0 1007.7 0.0
24/03:30am 15.9 14.7 11.7 76 2.3 NW 9 13 5 7 1008.2 1007.9 0.0
24/03:00am 16.0 14.5 12.0 77 2.2 NW 11 13 6 7 1008.4 1008.1 0.0
24/02:30am 15.9 15.2 11.9 77 2.2 NW 7 9 4 5 1008.5 1008.2 0.0
24/02:00am 16.0 14.5 12.0 77 2.2 NW 11 13 6 7 1009.0 1008.7 0.0
24/01:30am 16.0 14.5 12.0 77 2.2 NW 11 13 6 7 1009.1 1008.8 0.0
24/01:00am 15.9 15.7 11.7 76 2.3 NW 4 9 2 5 1009.1 1008.8 0.0
24/12:30am 16.2 15.1 11.8 75 2.4 WNW 9 11 5 6 1009.3 1009.0 0.0
24/12:00am 16.7 14.9 12.0 74 2.6 NW 13 17 7 9 1009.7 1009.4 0.0
 
Date/Time
EST
Temp
°C
App
Temp
°C
Dew
Point
Rel
Hum
%
Delta-T
°C
Wind Press
QNH
hPa
Press
MSL
hPa
Rain
since 9 am
mm
Dir
 
Spd
km/h
Gust
km/h
Spd
kts
Gust
kts
23/11:30pm 16.9 15.5 12.2 74 2.6 NW 11 13 6 7 1009.9 1009.6 0.0
23/11:00pm 16.7 15.8 12.5 76 2.3 NW 9 11 5 6 1010.2 1009.9 0.0
23/10:30pm 16.2 14.5 12.4 78 2.1 NW 13 13 7 7 1010.3 1010.0 0.0
23/10:00pm 16.1 16.0 12.1 77 2.2 NW 4 13 2 7 1010.3 1010.0 0.0
23/09:30pm 16.9 17.6 12.2 74 2.6 CALM 0 0 0 0 1010.3 1010.0 0.0
23/09:00pm 17.1 17.8 12.2 73 2.7 CALM 0 0 0 0 1010.3 1010.0 0.0
23/08:30pm 18.0 18.7 12.2 69 3.2 CALM 0 0 0 0 1010.5 1010.2 0.0
23/08:00pm 19.0 19.4 12.5 66 3.7 WNW 2 7 1 4 1010.5 1010.2 0.0
23/07:30pm 18.5 19.0 12.7 69 3.3 WNW 2 9 1 5 1010.8 1010.5 0.0
23/07:00pm 18.6 19.4 12.6 68 3.4 CALM 0 0 0 0 1010.8 1010.5 0.0
23/06:30pm 18.9 19.6 12.2 65 3.7 CALM 0 0 0 0 1010.5 1010.2 0.0
23/06:00pm 20.0 20.7 12.3 61 4.3 CALM 0 0 0 0 1010.5 1010.2 0.0
23/05:30pm 21.3 22.0 12.2 56 5.2 CALM 0 0 0 0 1010.3 1010.0 0.0
23/05:00pm 21.9 22.6 12.2 54 5.5 CALM 0 0 0 0 1010.2 1009.9 0.0
23/04:30pm 22.3 22.4 11.4 50 6.1 WSW 2 7 1 4 1010.2 1009.9 0.0
23/04:00pm 23.1 22.2 11.2 47 6.7 W 7 11 4 6 1010.5 1010.2 0.0
23/03:30pm 23.9 21.8 11.2 44 7.2 W 13 19 7 10 1010.7 1010.4 0.0
23/03:00pm 23.4 22.5 11.5 47 6.7 W 7 15 4 8 1010.8 1010.5 0.0
23/02:30pm 23.5 21.3 10.9 45 7.0 W 13 20 7 11 1010.9 1010.6 0.0
23/02:00pm 22.9 21.9 11.0 47 6.7 SW 7 19 4 10 1011.1 1010.8 0.0
23/01:30pm 22.6 21.7 10.7 47 6.6 SW 6 17 3 9 1011.5 1011.2 0.0
23/01:00pm 22.6 21.6 11.0 48 6.5 SW 7 13 4 7 1011.9 1011.6 0.0
23/12:30pm 22.5 22.5 11.3 49 6.3 W 2 11 1 6 1012.6 1012.2 0.0
23/12:00pm 21.9 21.2 11.3 51 5.9 SW 6 11 3 6 1013.3 1012.9 0.0
23/11:30am 20.7 19.8 10.8 53 5.4 SSW 6 9 3 5 1013.8 1013.5 0.0
23/11:00am 20.4 19.2 11.6 57 4.9 WSW 9 13 5 7 1014.2 1013.9 0.0
23/10:30am 19.2 17.7 10.7 58 4.6 W 9 13 5 7 1014.6 1014.3 0.0
23/10:00am 18.0 17.1 10.6 62 4.0 SW 6 9 3 5 1014.9 1014.6 0.0
23/09:30am 16.9 15.3 10.1 64 3.6 WSW 9 13 5 7 1015.0 1014.7 0.0
23/09:00am 15.6 14.6 10.2 70 2.9 SSW 6 9 3 5 1015.1 1014.8 0.0
23/08:30am 14.1 12.7 9.7 75 2.3 SW 7 13 4 7 1015.1 1014.8 0.0
23/08:00am 12.9 11.5 9.0 77 2.0 WSW 6 9 3 5 1015.2 1014.9 0.0
23/07:30am 11.7 11.2 9.4 86 1.2 NW 2 7 1 4 1014.8 1014.5 0.0
23/07:00am 10.4 10.0 8.3 87 1.0 CALM 0 0 0 0 1015.0 1014.7 0.0
23/06:30am 10.6 8.9 8.4 86 1.1 S 7 11 4 6 1014.9 1014.6 0.0
23/06:00am 11.4 9.9 8.6 83 1.4 SW 6 9 3 5 1015.0 1014.7 0.0
23/05:30am 11.6 10.0 8.8 83 1.4 WSW 7 11 4 6 1014.8 1014.5 0.0
23/05:00am 11.1 10.8 8.7 85 1.2 CALM 0 0 0 0 1014.7 1014.4 0.0
23/04:30am 11.2 10.9 8.8 85 1.2 CALM 0 0 0 0 1014.6 1014.3 0.0
23/04:00am 11.8 11.5 8.6 81 1.6 CALM 0 0 0 0 1014.4 1014.1 0.0
23/03:30am 12.4 10.9 8.5 77 2.0 NE 6 7 3 4 1014.6 1014.3 0.0
23/03:00am 13.6 11.0 9.3 75 2.2 SSE 13 19 7 10 1014.5 1014.2 0.0
23/02:30am 13.8 11.9 9.0 73 2.4 SSE 9 15 5 8 1015.0 1014.7 0.0
23/02:00am 14.1 11.1 9.1 72 2.6 SSE 15 20 8 11 1015.1 1014.8 0.0
23/01:30am 14.4 11.4 9.2 71 2.7 SE 15 20 8 11 1015.2 1014.9 0.0
23/01:00am 15.1 11.7 9.0 67 3.1 S 17 20 9 11 1015.5 1015.2 0.0
23/12:30am 14.3 12.7 8.9 70 2.8 S 7 9 4 5 1015.8 1015.5 0.0
23/12:00am 15.0 12.7 9.1 68 3.0 S 11 13 6 7 1015.9 1015.6 0.0
 
Date/Time
EST
Temp
°C
App
Temp
°C
Dew
Point
Rel
Hum
%
Delta-T
°C
Wind Press
QNH
hPa
Press
MSL
hPa
Rain
since 9 am
mm
Dir
 
Spd
km/h
Gust
km/h
Spd
kts
Gust
kts
22/11:30pm 15.3 12.7 9.4 68 3.1 SSW 13 17 7 9 1015.9 1015.6 0.0
22/11:00pm 15.4 14.1 10.0 70 2.8 SSW 7 9 4 5 1016.5 1016.2 0.0
22/10:30pm 16.0 13.6 9.9 67 3.2 SSW 13 15 7 8 1016.8 1016.5 0.0
22/10:00pm 16.4 13.5 9.8 65 3.5 SSW 15 20 8 11 1017.1 1016.8 0.0
22/09:30pm 15.4 13.4 10.0 70 2.8 SSW 11 11 6 6 1016.9 1016.6 0.0

Other Formats:

Comma delimited format used in spreadsheet applications
http://www.bom.gov.au/fwo/IDN60801/IDN60801.95706.axf

JavaScript Object Notation format (JSON) in row-major order
http://www.bom.gov.au/fwo/IDN60801/IDN60801.95706.json